sensor_id;sensor_type;location;lat;lon;timestamp;pressure;altitude;pressure_sealevel;temperature;humidity
35419;BME280;21525;41.240;16.500;2023-02-28T00:00:13;101500.75;;;17.98;64.78
35419;BME280;21525;41.240;16.500;2023-02-28T00:02:41;101491.78;;;18.03;65.57
35419;BME280;21525;41.240;16.500;2023-02-28T00:05:08;101496.34;;;17.98;64.44
35419;BME280;21525;41.240;16.500;2023-02-28T00:07:34;101503.44;;;18.23;62.89
35419;BME280;21525;41.240;16.500;2023-02-28T00:10:00;101511.91;;;18.06;63.25
35419;BME280;21525;41.240;16.500;2023-02-28T00:12:26;101511.22;;;17.99;64.31
35419;BME280;21525;41.240;16.500;2023-02-28T00:14:52;101521.75;;;17.71;65.07
35419;BME280;21525;41.240;16.500;2023-02-28T00:17:19;101519.69;;;18.37;62.46
35419;BME280;21525;41.240;16.500;2023-02-28T00:19:47;101515.34;;;18.08;63.20
35419;BME280;21525;41.240;16.500;2023-02-28T00:22:15;101520.88;;;17.71;64.80
35419;BME280;21525;41.240;16.500;2023-02-28T00:24:41;101527.78;;;17.75;63.66
35419;BME280;21525;41.240;16.500;2023-02-28T00:27:07;101514.13;;;17.61;64.48
35419;BME280;21525;41.240;16.500;2023-02-28T00:29:33;101517.22;;;17.45;64.56
35419;BME280;21525;41.240;16.500;2023-02-28T00:31:59;101518.97;;;17.76;64.31
35419;BME280;21525;41.240;16.500;2023-02-28T00:34:25;101531.69;;;17.90;62.70
35419;BME280;21525;41.240;16.500;2023-02-28T00:36:52;101532.13;;;18.58;60.50
35419;BME280;21525;41.240;16.500;2023-02-28T00:39:17;101535.06;;;17.95;62.21
35419;BME280;21525;41.240;16.500;2023-02-28T00:41:43;101523.59;;;17.68;63.53
35419;BME280;21525;41.240;16.500;2023-02-28T00:44:09;101525.31;;;17.69;64.01
35419;BME280;21525;41.240;16.500;2023-02-28T00:46:35;101519.94;;;18.01;62.78
35419;BME280;21525;41.240;16.500;2023-02-28T00:49:00;101528.78;;;18.53;60.41
35419;BME280;21525;41.240;16.500;2023-02-28T00:51:26;101525.06;;;18.06;61.32
35419;BME280;21525;41.240;16.500;2023-02-28T00:53:52;101521.84;;;17.96;62.21
35419;BME280;21525;41.240;16.500;2023-02-28T00:56:18;101519.03;;;18.02;61.47
35419;BME280;21525;41.240;16.500;2023-02-28T00:58:44;101514.75;;;17.39;63.29
35419;BME280;21525;41.240;16.500;2023-02-28T01:01:09;101519.47;;;18.17;61.22
35419;BME280;21525;41.240;16.500;2023-02-28T01:03:37;101524.63;;;17.92;61.24
35419;BME280;21525;41.240;16.500;2023-02-28T01:06:04;101533.44;;;17.60;62.91
35419;BME280;21525;41.240;16.500;2023-02-28T01:08:29;101525.50;;;17.61;63.15
35419;BME280;21525;41.240;16.500;2023-02-28T01:10:56;101525.75;;;17.54;63.75
35419;BME280;21525;41.240;16.500;2023-02-28T01:13:22;101527.19;;;17.93;63.18
35419;BME280;21525;41.240;16.500;2023-02-28T01:15:55;101537.41;;;17.76;62.25
35419;BME280;21525;41.240;16.500;2023-02-28T01:18:22;101524.47;;;17.37;63.73
35419;BME280;21525;41.240;16.500;2023-02-28T01:20:48;101517.13;;;17.79;62.54
35419;BME280;21525;41.240;16.500;2023-02-28T01:23:15;101519.94;;;17.73;62.90
35419;BME280;21525;41.240;16.500;2023-02-28T01:25:41;101525.28;;;17.70;61.98
35419;BME280;21525;41.240;16.500;2023-02-28T01:28:07;101525.38;;;17.67;62.73
35419;BME280;21525;41.240;16.500;2023-02-28T01:30:33;101516.81;;;17.28;62.99
35419;BME280;21525;41.240;16.500;2023-02-28T01:32:59;101527.03;;;17.70;62.55
35419;BME280;21525;41.240;16.500;2023-02-28T01:35:25;101520.00;;;17.70;61.71
35419;BME280;21525;41.240;16.500;2023-02-28T01:37:51;101530.41;;;17.13;63.43
35419;BME280;21525;41.240;16.500;2023-02-28T01:40:17;101528.09;;;17.92;60.64
35419;BME280;21525;41.240;16.500;2023-02-28T01:42:43;101532.47;;;17.33;62.99
35419;BME280;21525;41.240;16.500;2023-02-28T01:45:23;101536.94;;;17.60;61.92
35419;BME280;21525;41.240;16.500;2023-02-28T01:47:53;101537.59;;;17.98;59.67
35419;BME280;21525;41.240;16.500;2023-02-28T01:50:23;101532.09;;;18.33;59.06
35419;BME280;21525;41.240;16.500;2023-02-28T01:52:51;101535.19;;;17.30;61.76
35419;BME280;21525;41.240;16.500;2023-02-28T01:55:20;101531.09;;;17.51;60.84
35419;BME280;21525;41.240;16.500;2023-02-28T01:57:52;101529.63;;;17.40;60.87
35419;BME280;21525;41.240;16.500;2023-02-28T02:00:23;101529.94;;;17.90;60.12
35419;BME280;21525;41.240;16.500;2023-02-28T02:02:52;101532.84;;;17.81;59.22
35419;BME280;21525;41.240;16.500;2023-02-28T02:05:22;101536.38;;;18.09;58.74
35419;BME280;21525;41.240;16.500;2023-02-28T02:07:51;101537.31;;;17.79;59.29
35419;BME280;21525;41.240;16.500;2023-02-28T02:10:21;101536.81;;;17.94;59.48
35419;BME280;21525;41.240;16.500;2023-02-28T02:21:13;101535.66;;;17.75;58.79
35419;BME280;21525;41.240;16.500;2023-02-28T02:37:47;101536.31;;;17.83;58.26
35419;BME280;21525;41.240;16.500;2023-02-28T02:40:19;101535.72;;;17.42;58.80
35419;BME280;21525;41.240;16.500;2023-02-28T02:48:08;101536.22;;;16.92;60.71
35419;BME280;21525;41.240;16.500;2023-02-28T02:51:06;101541.75;;;17.15;60.14
35419;BME280;21525;41.240;16.500;2023-02-28T02:53:44;101542.84;;;17.06;60.50
35419;BME280;21525;41.240;16.500;2023-02-28T02:56:13;101551.03;;;17.27;60.00
35419;BME280;21525;41.240;16.500;2023-02-28T02:58:42;101543.59;;;17.42;59.62
35419;BME280;21525;41.240;16.500;2023-02-28T03:01:15;101545.53;;;17.36;59.58
35419;BME280;21525;41.240;16.500;2023-02-28T03:04:16;101548.94;;;17.08;60.19
35419;BME280;21525;41.240;16.500;2023-02-28T03:06:42;101543.94;;;17.30;59.41
35419;BME280;21525;41.240;16.500;2023-02-28T03:09:08;101548.25;;;17.33;59.88
35419;BME280;21525;41.240;16.500;2023-02-28T03:11:36;101544.41;;;17.44;59.54
35419;BME280;21525;41.240;16.500;2023-02-28T03:22:43;101551.72;;;17.64;59.28
35419;BME280;21525;41.240;16.500;2023-02-28T03:25:36;101555.56;;;17.54;58.57
35419;BME280;21525;41.240;16.500;2023-02-28T03:28:27;101557.69;;;17.09;60.03
35419;BME280;21525;41.240;16.500;2023-02-28T03:31:01;101570.25;;;16.96;61.34
35419;BME280;21525;41.240;16.500;2023-02-28T03:33:40;101557.16;;;17.89;58.45
35419;BME280;21525;41.240;16.500;2023-02-28T03:36:12;101553.81;;;17.53;58.81
35419;BME280;21525;41.240;16.500;2023-02-28T03:39:05;101563.91;;;17.37;59.41
35419;BME280;21525;41.240;16.500;2023-02-28T03:41:37;101560.53;;;17.32;59.22
35419;BME280;21525;41.240;16.500;2023-02-28T03:44:14;101565.97;;;16.92;61.08
35419;BME280;21525;41.240;16.500;2023-02-28T03:47:10;101555.94;;;17.71;58.45
35419;BME280;21525;41.240;16.500;2023-02-28T03:49:46;101554.34;;;17.64;58.31
35419;BME280;21525;41.240;16.500;2023-02-28T03:52:17;101560.25;;;17.10;59.81
35419;BME280;21525;41.240;16.500;2023-02-28T03:54:48;101560.53;;;17.32;59.49
35419;BME280;21525;41.240;16.500;2023-02-28T04:00:24;101558.53;;;17.73;58.49
35419;BME280;21525;41.240;16.500;2023-02-28T04:02:54;101549.41;;;16.90;60.08
35419;BME280;21525;41.240;16.500;2023-02-28T04:05:21;101554.03;;;17.45;58.19
35419;BME280;21525;41.240;16.500;2023-02-28T04:07:47;101539.50;;;17.32;59.16
35419;BME280;21525;41.240;16.500;2023-02-28T04:10:14;101540.72;;;17.52;58.33
35419;BME280;21525;41.240;16.500;2023-02-28T04:12:40;101547.00;;;16.83;60.55
35419;BME280;21525;41.240;16.500;2023-02-28T04:15:07;101545.44;;;17.39;58.59
35419;BME280;21525;41.240;16.500;2023-02-28T04:17:33;101555.25;;;17.63;57.56
35419;BME280;21525;41.240;16.500;2023-02-28T04:19:59;101554.78;;;17.51;58.65
35419;BME280;21525;41.240;16.500;2023-02-28T04:22:24;101560.03;;;17.51;57.97
35419;BME280;21525;41.240;16.500;2023-02-28T04:24:53;101561.00;;;17.79;57.70
35419;BME280;21525;41.240;16.500;2023-02-28T04:27:20;101556.25;;;17.28;58.50
35419;BME280;21525;41.240;16.500;2023-02-28T04:29:46;101551.81;;;17.30;58.63
35419;BME280;21525;41.240;16.500;2023-02-28T04:32:12;101542.44;;;17.22;59.01
35419;BME280;21525;41.240;16.500;2023-02-28T04:34:39;101543.78;;;17.04;59.43
35419;BME280;21525;41.240;16.500;2023-02-28T04:37:06;101540.09;;;17.11;59.56
35419;BME280;21525;41.240;16.500;2023-02-28T04:39:35;101539.50;;;17.32;59.45
35419;BME280;21525;41.240;16.500;2023-02-28T04:42:01;101539.56;;;17.29;59.10
35419;BME280;21525;41.240;16.500;2023-02-28T04:44:27;101548.69;;;16.85;60.45
35419;BME280;21525;41.240;16.500;2023-02-28T04:46:53;101541.72;;;17.78;57.37
35419;BME280;21525;41.240;16.500;2023-02-28T04:49:19;101548.09;;;17.06;59.42
35419;BME280;21525;41.240;16.500;2023-02-28T04:51:45;101538.16;;;17.18;59.75
35419;BME280;21525;41.240;16.500;2023-02-28T04:54:10;101537.38;;;17.14;58.76
35419;BME280;21525;41.240;16.500;2023-02-28T04:56:36;101540.84;;;17.16;58.64
35419;BME280;21525;41.240;16.500;2023-02-28T04:59:02;101537.38;;;17.14;59.28
35419;BME280;21525;41.240;16.500;2023-02-28T05:01:33;101543.63;;;16.77;60.27
35419;BME280;21525;41.240;16.500;2023-02-28T05:04:01;101550.63;;;17.11;59.41
35419;BME280;21525;41.240;16.500;2023-02-28T05:06:29;101551.88;;;16.96;60.24
35419;BME280;21525;41.240;16.500;2023-02-28T05:08:55;101539.00;;;17.20;59.41
35419;BME280;21525;41.240;16.500;2023-02-28T05:11:28;101554.88;;;16.83;60.09
35419;BME280;21525;41.240;16.500;2023-02-28T05:13:55;101566.03;;;16.91;60.33
35419;BME280;21525;41.240;16.500;2023-02-28T05:16:21;101562.69;;;17.18;59.69
35419;BME280;21525;41.240;16.500;2023-02-28T05:18:47;101560.22;;;17.12;59.26
35419;BME280;21525;41.240;16.500;2023-02-28T05:23:52;101563.59;;;16.85;59.32
35419;BME280;21525;41.240;16.500;2023-02-28T05:26:19;101555.94;;;17.40;57.82
35419;BME280;21525;41.240;16.500;2023-02-28T05:28:45;101560.16;;;17.15;58.36
35419;BME280;21525;41.240;16.500;2023-02-28T05:31:10;101561.34;;;17.67;57.35
35419;BME280;21525;41.240;16.500;2023-02-28T05:33:36;101564.56;;;17.45;57.68
35419;BME280;21525;41.240;16.500;2023-02-28T05:36:03;101557.00;;;17.01;58.31
35419;BME280;21525;41.240;16.500;2023-02-28T05:38:29;101562.41;;;16.95;58.81
35419;BME280;21525;41.240;16.500;2023-02-28T05:40:54;101557.28;;;16.90;59.69
35419;BME280;21525;41.240;16.500;2023-02-28T05:43:20;101567.03;;;16.87;59.24
35419;BME280;21525;41.240;16.500;2023-02-28T05:45:46;101566.34;;;17.12;58.02
35419;BME280;21525;41.240;16.500;2023-02-28T05:48:12;101569.09;;;17.40;58.55
35419;BME280;21525;41.240;16.500;2023-02-28T05:50:37;101567.31;;;17.08;58.87
35419;BME280;21525;41.240;16.500;2023-02-28T05:53:03;101563.47;;;17.22;58.02
35419;BME280;21525;41.240;16.500;2023-02-28T05:55:29;101562.66;;;17.20;58.40
35419;BME280;21525;41.240;16.500;2023-02-28T05:57:55;101563.94;;;17.68;57.36
35419;BME280;21525;41.240;16.500;2023-02-28T06:00:21;101559.66;;;17.32;57.47
35419;BME280;21525;41.240;16.500;2023-02-28T06:02:47;101569.31;;;16.99;58.61
35419;BME280;21525;41.240;16.500;2023-02-28T06:05:17;101567.84;;;17.54;57.30
35419;BME280;21525;41.240;16.500;2023-02-28T06:07:43;101564.44;;;17.81;56.61
35419;BME280;21525;41.240;16.500;2023-02-28T06:10:11;101558.84;;;17.61;56.77
35419;BME280;21525;41.240;16.500;2023-02-28T06:12:37;101556.78;;;17.41;58.02
35419;BME280;21525;41.240;16.500;2023-02-28T06:15:04;101570.03;;;17.98;56.64
35419;BME280;21525;41.240;16.500;2023-02-28T06:17:30;101577.34;;;17.58;57.30
35419;BME280;21525;41.240;16.500;2023-02-28T06:19:55;101585.88;;;17.97;56.10
35419;BME280;21525;41.240;16.500;2023-02-28T06:22:21;101586.41;;;17.48;57.17
35419;BME280;21525;41.240;16.500;2023-02-28T06:24:47;101578.03;;;17.64;57.13
35419;BME280;21525;41.240;16.500;2023-02-28T06:27:14;101586.34;;;17.82;56.47
35419;BME280;21525;41.240;16.500;2023-02-28T06:29:41;101596.94;;;17.48;57.71
35419;BME280;21525;41.240;16.500;2023-02-28T06:32:07;101590.38;;;17.93;56.67
35419;BME280;21525;41.240;16.500;2023-02-28T06:34:33;101590.78;;;17.49;57.51
35419;BME280;21525;41.240;16.500;2023-02-28T06:36:59;101603.56;;;17.61;57.54
35419;BME280;21525;41.240;16.500;2023-02-28T06:39:29;101605.56;;;17.53;59.80
35419;BME280;21525;41.240;16.500;2023-02-28T06:41:55;101607.28;;;18.16;56.97
35419;BME280;21525;41.240;16.500;2023-02-28T06:44:22;101598.78;;;18.34;55.35
35419;BME280;21525;41.240;16.500;2023-02-28T06:46:48;101599.63;;;17.77;56.87
35419;BME280;21525;41.240;16.500;2023-02-28T06:49:14;101609.44;;;17.72;56.59
35419;BME280;21525;41.240;16.500;2023-02-28T06:51:43;101616.56;;;17.98;56.06
35419;BME280;21525;41.240;16.500;2023-02-28T06:54:13;101617.72;;;18.19;55.54
35419;BME280;21525;41.240;16.500;2023-02-28T06:56:39;101618.16;;;18.03;55.45
35419;BME280;21525;41.240;16.500;2023-02-28T06:59:05;101617.19;;;17.76;56.55
35419;BME280;21525;41.240;16.500;2023-02-28T07:01:31;101620.66;;;17.46;57.20
35419;BME280;21525;41.240;16.500;2023-02-28T07:03:59;101618.34;;;17.97;56.39
35419;BME280;21525;41.240;16.500;2023-02-28T07:06:26;101619.53;;;18.44;54.89
35419;BME280;21525;41.240;16.500;2023-02-28T07:08:54;101622.13;;;18.18;55.84
35419;BME280;21525;41.240;16.500;2023-02-28T07:11:22;101628.34;;;17.86;56.23
35419;BME280;21525;41.240;16.500;2023-02-28T07:13:49;101622.78;;;17.95;56.62
35419;BME280;21525;41.240;16.500;2023-02-28T07:16:16;101621.91;;;18.24;55.48
35419;BME280;21525;41.240;16.500;2023-02-28T07:18:42;101620.75;;;18.05;56.19
35419;BME280;21525;41.240;16.500;2023-02-28T07:21:10;101617.59;;;17.92;57.24
35419;BME280;21525;41.240;16.500;2023-02-28T07:23:37;101613.50;;;18.13;56.36
35419;BME280;21525;41.240;16.500;2023-02-28T07:26:10;101623.75;;;18.21;56.40
35419;BME280;21525;41.240;16.500;2023-02-28T07:28:37;101619.53;;;18.44;55.60
35419;BME280;21525;41.240;16.500;2023-02-28T07:31:07;101620.75;;;18.62;55.13
35419;BME280;21525;41.240;16.500;2023-02-28T07:33:33;101624.72;;;18.75;54.83
35419;BME280;21525;41.240;16.500;2023-02-28T07:36:03;101624.72;;;18.75;54.97
35419;BME280;21525;41.240;16.500;2023-02-28T07:38:30;101626.38;;;18.50;55.45
35419;BME280;21525;41.240;16.500;2023-02-28T07:40:55;101614.88;;;18.81;54.84
35419;BME280;21525;41.240;16.500;2023-02-28T07:43:21;101627.75;;;18.90;54.41
35419;BME280;21525;41.240;16.500;2023-02-28T07:45:47;101624.09;;;18.94;54.10
35419;BME280;21525;41.240;16.500;2023-02-28T07:48:13;101624.81;;;18.72;54.98
35419;BME280;21525;41.240;16.500;2023-02-28T07:50:39;101628.09;;;19.05;53.66
35419;BME280;21525;41.240;16.500;2023-02-28T07:53:05;101623.44;;;19.38;53.64
35419;BME280;21525;41.240;16.500;2023-02-28T07:55:30;101626.88;;;18.63;54.67
35419;BME280;21525;41.240;16.500;2023-02-28T07:57:57;101632.47;;;19.06;54.68
35419;BME280;21525;41.240;16.500;2023-02-28T08:00:23;101630.78;;;19.04;54.04
35419;BME280;21525;41.240;16.500;2023-02-28T08:02:49;101634.41;;;19.01;54.38
35419;BME280;21525;41.240;16.500;2023-02-28T08:05:15;101637.44;;;18.89;54.14
35419;BME280;21525;41.240;16.500;2023-02-28T08:07:41;101636.13;;;18.76;55.33
35419;BME280;21525;41.240;16.500;2023-02-28T08:10:07;101638.13;;;18.40;55.97
35419;BME280;21525;41.240;16.500;2023-02-28T08:12:35;101634.16;;;19.09;54.63
35419;BME280;21525;41.240;16.500;2023-02-28T08:15:01;101632.06;;;19.17;54.29
35419;BME280;21525;41.240;16.500;2023-02-28T08:17:27;101631.13;;;19.20;54.60
35419;BME280;21525;41.240;16.500;2023-02-28T08:19:53;101625.47;;;20.49;51.74
35419;BME280;21525;41.240;16.500;2023-02-28T08:22:19;101625.59;;;20.00;52.45
35419;BME280;21525;41.240;16.500;2023-02-28T08:24:45;101629.44;;;19.92;52.68
35419;BME280;21525;41.240;16.500;2023-02-28T08:27:11;101634.84;;;20.34;51.56
35419;BME280;21525;41.240;16.500;2023-02-28T08:29:38;101638.19;;;20.16;53.05
35419;BME280;21525;41.240;16.500;2023-02-28T08:32:04;101635.78;;;20.33;51.68
35419;BME280;21525;41.240;16.500;2023-02-28T08:34:30;101636.38;;;19.94;52.40
35419;BME280;21525;41.240;16.500;2023-02-28T08:36:56;101637.13;;;20.66;50.46
35419;BME280;21525;41.240;16.500;2023-02-28T08:39:22;101638.41;;;20.33;51.84
35419;BME280;21525;41.240;16.500;2023-02-28T08:41:48;101632.06;;;20.60;50.68
35419;BME280;21525;41.240;16.500;2023-02-28T08:44:13;101637.50;;;20.79;50.98
35419;BME280;21525;41.240;16.500;2023-02-28T08:46:39;101634.25;;;20.93;50.15
35419;BME280;21525;41.240;16.500;2023-02-28T08:49:05;101631.84;;;21.88;49.03
35419;BME280;21525;41.240;16.500;2023-02-28T08:51:32;101632.91;;;22.04;48.07
35419;BME280;21525;41.240;16.500;2023-02-28T08:53:59;101622.44;;;22.39;47.88
35419;BME280;21525;41.240;16.500;2023-02-28T08:56:26;101626.09;;;22.72;46.92
35419;BME280;21525;41.240;16.500;2023-02-28T08:58:54;101620.63;;;22.75;46.73
35419;BME280;21525;41.240;16.500;2023-02-28T09:01:23;101623.81;;;22.29;47.27
35419;BME280;21525;41.240;16.500;2023-02-28T09:03:50;101623.50;;;21.97;48.01
35419;BME280;21525;41.240;16.500;2023-02-28T09:06:18;101622.69;;;21.95;48.63
35419;BME280;21525;41.240;16.500;2023-02-28T09:08:44;101630.25;;;21.65;48.89
35419;BME280;21525;41.240;16.500;2023-02-28T09:11:11;101631.56;;;21.75;48.50
35419;BME280;21525;41.240;16.500;2023-02-28T09:13:37;101632.34;;;21.38;49.14
35419;BME280;21525;41.240;16.500;2023-02-28T09:16:05;101625.25;;;21.78;48.60
35419;BME280;21525;41.240;16.500;2023-02-28T09:18:34;101626.94;;;21.60;49.26
35419;BME280;21525;41.240;16.500;2023-02-28T09:21:02;101628.78;;;21.97;49.04
35419;BME280;21525;41.240;16.500;2023-02-28T09:23:27;101618.09;;;21.80;48.96
35419;BME280;21525;41.240;16.500;2023-02-28T09:25:54;101622.31;;;21.84;48.98
35419;BME280;21525;41.240;16.500;2023-02-28T09:28:21;101632.56;;;21.92;49.02
35419;BME280;21525;41.240;16.500;2023-02-28T09:30:49;101631.19;;;22.03;48.26
35419;BME280;21525;41.240;16.500;2023-02-28T09:33:17;101624.34;;;21.98;48.93
35419;BME280;21525;41.240;16.500;2023-02-28T09:35:47;101616.13;;;22.23;48.70
35419;BME280;21525;41.240;16.500;2023-02-28T09:38:13;101622.03;;;22.65;47.91
35419;BME280;21525;41.240;16.500;2023-02-28T09:40:54;101604.91;;;22.18;47.70
35419;BME280;21525;41.240;16.500;2023-02-28T09:43:23;101600.81;;;21.53;49.87
35419;BME280;21525;41.240;16.500;2023-02-28T09:48:31;101606.78;;;23.57;45.51
35419;BME280;21525;41.240;16.500;2023-02-28T09:54:00;101601.72;;;23.18;45.73
35419;BME280;21525;41.240;16.500;2023-02-28T09:56:42;101600.41;;;23.92;44.85
35419;BME280;21525;41.240;16.500;2023-02-28T10:01:54;101599.06;;;24.01;44.53
35419;BME280;21525;41.240;16.500;2023-02-28T10:04:36;101604.69;;;23.95;44.09
35419;BME280;21525;41.240;16.500;2023-02-28T10:07:16;101610.38;;;24.52;42.99
35419;BME280;21525;41.240;16.500;2023-02-28T10:09:47;101615.34;;;23.44;44.14
35419;BME280;21525;41.240;16.500;2023-02-28T10:12:17;101607.41;;;23.27;45.09
35419;BME280;21525;41.240;16.500;2023-02-28T10:14:46;101607.41;;;23.10;44.26
35419;BME280;21525;41.240;16.500;2023-02-28T10:17:19;101605.22;;;23.18;44.90
35419;BME280;21525;41.240;16.500;2023-02-28T10:22:26;101602.56;;;23.18;44.33
35419;BME280;21525;41.240;16.500;2023-02-28T10:24:55;101607.53;;;23.41;44.02
35419;BME280;21525;41.240;16.500;2023-02-28T10:27:29;101598.16;;;23.69;44.36
35419;BME280;21525;41.240;16.500;2023-02-28T10:29:58;101605.25;;;23.51;44.20
35419;BME280;21525;41.240;16.500;2023-02-28T10:32:27;101609.25;;;23.60;43.90
35419;BME280;21525;41.240;16.500;2023-02-28T10:35:16;101615.84;;;23.35;44.93
35419;BME280;21525;41.240;16.500;2023-02-28T10:37:46;101628.41;;;23.15;45.17
35419;BME280;21525;41.240;16.500;2023-02-28T10:43:01;101626.94;;;22.92;45.35
35419;BME280;21525;41.240;16.500;2023-02-28T10:45:35;101623.50;;;23.24;44.65
35419;BME280;21525;41.240;16.500;2023-02-28T10:50:43;101620.75;;;23.60;44.44
35419;BME280;21525;41.240;16.500;2023-02-28T10:55:36;101610.50;;;23.70;44.22
35419;BME280;21525;41.240;16.500;2023-02-28T10:58:02;101599.50;;;23.76;44.47
35419;BME280;21525;41.240;16.500;2023-02-28T11:00:35;101586.94;;;23.79;45.54
35419;BME280;21525;41.240;16.500;2023-02-28T11:03:01;101595.09;;;24.08;46.07
35419;BME280;21525;41.240;16.500;2023-02-28T11:05:47;101589.22;;;24.34;45.11
35419;BME280;21525;41.240;16.500;2023-02-28T11:08:16;101593.13;;;23.12;45.66
35419;BME280;21525;41.240;16.500;2023-02-28T11:10:55;101595.78;;;23.30;45.00
35419;BME280;21525;41.240;16.500;2023-02-28T11:13:27;101605.66;;;23.43;45.29
35419;BME280;21525;41.240;16.500;2023-02-28T11:15:57;101608.69;;;23.70;45.17
35419;BME280;21525;41.240;16.500;2023-02-28T11:20:55;101608.34;;;23.26;46.45
35419;BME280;21525;41.240;16.500;2023-02-28T11:23:25;101606.00;;;22.86;46.38
35419;BME280;21525;41.240;16.500;2023-02-28T11:25:56;101601.81;;;22.63;47.08
35419;BME280;21525;41.240;16.500;2023-02-28T11:28:34;101597.59;;;22.95;46.47
35419;BME280;21525;41.240;16.500;2023-02-28T11:33:52;101609.44;;;22.52;47.83
35419;BME280;21525;41.240;16.500;2023-02-28T11:38:55;101609.13;;;22.40;47.74
35419;BME280;21525;41.240;16.500;2023-02-28T11:43:53;101600.13;;;22.43;47.84
35419;BME280;21525;41.240;16.500;2023-02-28T11:46:40;101589.22;;;22.32;48.60
35419;BME280;21525;41.240;16.500;2023-02-28T11:56:54;101563.13;;;21.07;50.67
35419;BME280;21525;41.240;16.500;2023-02-28T12:10:29;101546.03;;;21.73;51.04
35419;BME280;21525;41.240;16.500;2023-02-28T12:26:44;101521.50;;;20.06;55.28
35419;BME280;21525;41.240;16.500;2023-02-28T12:31:48;101511.03;;;19.34;56.91
35419;BME280;21525;41.240;16.500;2023-02-28T12:34:21;101512.22;;;21.02;53.16
35419;BME280;21525;41.240;16.500;2023-02-28T12:36:51;101502.75;;;20.96;53.02
35419;BME280;21525;41.240;16.500;2023-02-28T12:39:32;101496.16;;;20.66;53.24
35419;BME280;21525;41.240;16.500;2023-02-28T12:44:42;101504.66;;;20.52;54.28
35419;BME280;21525;41.240;16.500;2023-02-28T12:47:14;101501.19;;;20.72;53.98
35419;BME280;21525;41.240;16.500;2023-02-28T12:49:53;101484.50;;;20.90;53.97
35419;BME280;21525;41.240;16.500;2023-02-28T12:55:30;101483.03;;;19.30;58.74
35419;BME280;21525;41.240;16.500;2023-02-28T12:58:11;101482.31;;;19.73;57.59
35419;BME280;21525;41.240;16.500;2023-02-28T13:00:53;101487.97;;;20.08;57.19
35419;BME280;21525;41.240;16.500;2023-02-28T13:04:04;101483.84;;;20.01;57.46
35419;BME280;21525;41.240;16.500;2023-02-28T13:09:23;101473.00;;;21.11;54.67
35419;BME280;21525;41.240;16.500;2023-02-28T13:11:50;101467.22;;;21.22;54.51
35419;BME280;21525;41.240;16.500;2023-02-28T13:19:26;101450.34;;;20.65;55.56
35419;BME280;21525;41.240;16.500;2023-02-28T13:21:54;101450.59;;;21.39;53.87
35419;BME280;21525;41.240;16.500;2023-02-28T13:24:47;101445.50;;;21.34;53.94
35419;BME280;21525;41.240;16.500;2023-02-28T13:29:43;101463.75;;;19.05;59.86
35419;BME280;21525;41.240;16.500;2023-02-28T13:42:50;101429.78;;;21.31;56.63
35419;BME280;21525;41.240;16.500;2023-02-28T13:45:27;101438.59;;;20.52;58.43
35419;BME280;21525;41.240;16.500;2023-02-28T13:48:04;101433.34;;;21.30;57.34
35419;BME280;21525;41.240;16.500;2023-02-28T13:50:40;101437.19;;;20.64;59.86
35419;BME280;21525;41.240;16.500;2023-02-28T13:56:17;101428.72;;;20.96;58.43
35419;BME280;21525;41.240;16.500;2023-02-28T13:59:06;101430.63;;;20.93;58.95
35419;BME280;21525;41.240;16.500;2023-02-28T14:01:51;101435.59;;;21.19;58.01
35419;BME280;21525;41.240;16.500;2023-02-28T14:07:19;101434.91;;;21.53;56.79
35419;BME280;21525;41.240;16.500;2023-02-28T14:09:55;101429.78;;;21.31;57.22
35419;BME280;21525;41.240;16.500;2023-02-28T14:17:58;101436.63;;;20.77;59.91
35419;BME280;21525;41.240;16.500;2023-02-28T14:20:27;101430.31;;;20.80;60.58
35419;BME280;21525;41.240;16.500;2023-02-28T14:23:03;101425.66;;;21.05;59.86
35419;BME280;21525;41.240;16.500;2023-02-28T14:25:56;101427.75;;;21.55;58.46
35419;BME280;21525;41.240;16.500;2023-02-28T14:31:29;101435.78;;;21.54;57.96
35419;BME280;21525;41.240;16.500;2023-02-28T14:34:11;101425.03;;;21.57;57.63
35419;BME280;21525;41.240;16.500;2023-02-28T14:36:40;101421.47;;;21.58;57.87
35419;BME280;21525;41.240;16.500;2023-02-28T14:39:12;101422.25;;;21.60;57.89
35419;BME280;21525;41.240;16.500;2023-02-28T14:44:24;101420.75;;;21.73;56.68
35419;BME280;21525;41.240;16.500;2023-02-28T14:46:54;101428.69;;;21.73;57.66
35419;BME280;21525;41.240;16.500;2023-02-28T14:49:26;101431.53;;;21.50;57.87
35419;BME280;21525;41.240;16.500;2023-02-28T14:52:12;101430.63;;;21.51;58.17
35419;BME280;21525;41.240;16.500;2023-02-28T14:54:41;101433.03;;;21.74;57.41
35419;BME280;21525;41.240;16.500;2023-02-28T14:57:32;101429.28;;;21.78;57.68
35419;BME280;21525;41.240;16.500;2023-02-28T15:02:39;101427.22;;;22.03;56.73
35419;BME280;21525;41.240;16.500;2023-02-28T15:07:48;101410.72;;;21.61;58.38
35419;BME280;21525;41.240;16.500;2023-02-28T15:10:23;101407.03;;;21.27;59.93
35419;BME280;21525;41.240;16.500;2023-02-28T15:18:38;101413.81;;;21.88;58.40
35419;BME280;21525;41.240;16.500;2023-02-28T15:21:11;101416.41;;;21.14;60.83
35419;BME280;21525;41.240;16.500;2023-02-28T15:26:05;101420.84;;;21.89;58.52
35419;BME280;21525;41.240;16.500;2023-02-28T15:28:31;101410.50;;;21.65;59.50
35419;BME280;21525;41.240;16.500;2023-02-28T15:31:00;101415.13;;;21.79;59.62
35419;BME280;21525;41.240;16.500;2023-02-28T15:33:31;101421.34;;;21.78;60.25
35419;BME280;21525;41.240;16.500;2023-02-28T15:36:13;101425.09;;;21.74;59.85